sensor_id;sensor_type;location;lat;lon;timestamp;pressure;altitude;pressure_sealevel;temperature;humidity
78857;BME280;68207;50.078;19.936;2023-04-03T00:00:30;99324.11;;;3.45;75.38
78857;BME280;68207;50.078;19.936;2023-04-03T00:02:56;99329.91;;;3.43;75.48
78857;BME280;68207;50.078;19.936;2023-04-03T00:05:22;99324.46;;;3.40;75.45
78857;BME280;68207;50.078;19.936;2023-04-03T00:07:47;99326.02;;;3.36;75.47
78857;BME280;68207;50.078;19.936;2023-04-03T00:10:15;99327.15;;;3.35;75.37
78857;BME280;68207;50.078;19.936;2023-04-03T00:12:40;99329.79;;;3.35;75.55
78857;BME280;68207;50.078;19.936;2023-04-03T00:15:06;99328.81;;;3.34;75.47
78857;BME280;68207;50.078;19.936;2023-04-03T00:17:32;99328.72;;;3.33;75.69
78857;BME280;68207;50.078;19.936;2023-04-03T00:19:57;99328.48;;;3.32;75.74
78857;BME280;68207;50.078;19.936;2023-04-03T00:22:23;99325.98;;;3.28;75.72
78857;BME280;68207;50.078;19.936;2023-04-03T00:24:48;99325.48;;;3.23;75.61
78857;BME280;68207;50.078;19.936;2023-04-03T00:27:14;99326.25;;;3.18;75.87
78857;BME280;68207;50.078;19.936;2023-04-03T00:29:40;99327.88;;;3.12;75.88
78857;BME280;68207;50.078;19.936;2023-04-03T00:32:06;99329.17;;;3.12;75.97
78857;BME280;68207;50.078;19.936;2023-04-03T00:34:31;99333.28;;;3.12;76.05
78857;BME280;68207;50.078;19.936;2023-04-03T00:36:57;99331.90;;;3.12;76.15
78857;BME280;68207;50.078;19.936;2023-04-03T00:39:22;99337.23;;;3.11;76.10
78857;BME280;68207;50.078;19.936;2023-04-03T00:41:48;99338.83;;;3.08;76.03
78857;BME280;68207;50.078;19.936;2023-04-03T00:44:22;99339.50;;;3.06;76.19
78857;BME280;68207;50.078;19.936;2023-04-03T00:46:47;99345.23;;;3.02;76.25
78857;BME280;68207;50.078;19.936;2023-04-03T00:49:13;99345.25;;;2.97;76.24
78857;BME280;68207;50.078;19.936;2023-04-03T00:51:38;99345.77;;;2.95;76.31
78857;BME280;68207;50.078;19.936;2023-04-03T00:54:06;99347.28;;;2.93;76.27
78857;BME280;68207;50.078;19.936;2023-04-03T00:56:33;99343.89;;;2.90;76.11
78857;BME280;68207;50.078;19.936;2023-04-03T00:59:11;99344.75;;;2.87;76.30
78857;BME280;68207;50.078;19.936;2023-04-03T01:01:38;99346.35;;;2.85;76.46
78857;BME280;68207;50.078;19.936;2023-04-03T01:04:04;99346.00;;;2.82;76.43
78857;BME280;68207;50.078;19.936;2023-04-03T01:06:34;99346.86;;;2.80;76.49
78857;BME280;68207;50.078;19.936;2023-04-03T01:09:01;99349.63;;;2.81;76.54
78857;BME280;68207;50.078;19.936;2023-04-03T01:11:26;99348.95;;;2.83;76.60
78857;BME280;68207;50.078;19.936;2023-04-03T01:13:52;99351.31;;;2.84;76.60
78857;BME280;68207;50.078;19.936;2023-04-03T01:16:18;99356.02;;;2.82;76.71
78857;BME280;68207;50.078;19.936;2023-04-03T01:18:44;99356.79;;;2.81;76.52
78857;BME280;68207;50.078;19.936;2023-04-03T01:26:38;99357.20;;;2.66;76.60
78857;BME280;68207;50.078;19.936;2023-04-03T01:29:04;99361.05;;;2.63;76.79
78857;BME280;68207;50.078;19.936;2023-04-03T01:31:54;99360.27;;;2.64;76.78
78857;BME280;68207;50.078;19.936;2023-04-03T01:34:20;99361.59;;;2.65;76.84
78857;BME280;68207;50.078;19.936;2023-04-03T01:36:46;99362.09;;;2.65;76.84
78857;BME280;68207;50.078;19.936;2023-04-03T01:39:12;99367.18;;;2.65;77.00
78857;BME280;68207;50.078;19.936;2023-04-03T01:41:37;99365.80;;;2.62;76.93
78857;BME280;68207;50.078;19.936;2023-04-03T01:44:03;99368.40;;;2.60;76.96
78857;BME280;68207;50.078;19.936;2023-04-03T01:46:29;99371.63;;;2.59;77.13
78857;BME280;68207;50.078;19.936;2023-04-03T01:48:54;99372.25;;;2.60;77.16
78857;BME280;68207;50.078;19.936;2023-04-03T01:51:20;99376.61;;;2.63;77.21
78857;BME280;68207;50.078;19.936;2023-04-03T01:53:45;99378.23;;;2.62;77.01
78857;BME280;68207;50.078;19.936;2023-04-03T01:56:11;99381.86;;;2.62;77.15
78857;BME280;68207;50.078;19.936;2023-04-03T01:58:36;99379.45;;;2.62;77.13
78857;BME280;68207;50.078;19.936;2023-04-03T02:01:01;99380.25;;;2.63;77.01
78857;BME280;68207;50.078;19.936;2023-04-03T02:03:27;99379.52;;;2.61;77.12
78857;BME280;68207;50.078;19.936;2023-04-03T02:05:52;99378.55;;;2.58;77.06
78857;BME280;68207;50.078;19.936;2023-04-03T02:08:18;99380.43;;;2.58;77.05
78857;BME280;68207;50.078;19.936;2023-04-03T02:10:47;99385.31;;;2.60;77.09
78857;BME280;68207;50.078;19.936;2023-04-03T02:13:12;99381.27;;;2.61;77.08
78857;BME280;68207;50.078;19.936;2023-04-03T02:15:38;99382.39;;;2.60;76.99
78857;BME280;68207;50.078;19.936;2023-04-03T02:18:05;99385.96;;;2.59;77.15
78857;BME280;68207;50.078;19.936;2023-04-03T02:20:30;99386.58;;;2.60;77.11
78857;BME280;68207;50.078;19.936;2023-04-03T02:22:55;99386.92;;;2.60;77.25
78857;BME280;68207;50.078;19.936;2023-04-03T02:25:21;99388.45;;;2.58;77.23
78857;BME280;68207;50.078;19.936;2023-04-03T02:27:46;99384.77;;;2.59;77.20
78857;BME280;68207;50.078;19.936;2023-04-03T02:30:12;99388.27;;;2.61;77.22
78857;BME280;68207;50.078;19.936;2023-04-03T02:32:40;99391.06;;;2.63;77.10
78857;BME280;68207;50.078;19.936;2023-04-03T02:35:06;99390.76;;;2.62;77.15
78857;BME280;68207;50.078;19.936;2023-04-03T02:37:32;99388.27;;;2.63;77.13
78857;BME280;68207;50.078;19.936;2023-04-03T02:39:58;99389.85;;;2.63;77.18
78857;BME280;68207;50.078;19.936;2023-04-03T02:42:23;99393.48;;;2.61;77.15
78857;BME280;68207;50.078;19.936;2023-04-03T02:44:48;99395.98;;;2.58;77.11
78857;BME280;68207;50.078;19.936;2023-04-03T02:47:14;99396.96;;;2.59;77.06
78857;BME280;68207;50.078;19.936;2023-04-03T02:49:39;99401.70;;;2.60;77.12
78857;BME280;68207;50.078;19.936;2023-04-03T02:52:05;99404.13;;;2.61;77.11
78857;BME280;68207;50.078;19.936;2023-04-03T02:54:30;99404.15;;;2.58;77.03
78857;BME280;68207;50.078;19.936;2023-04-03T02:56:57;99404.77;;;2.54;77.02
78857;BME280;68207;50.078;19.936;2023-04-03T02:59:22;99411.22;;;2.50;76.94
78857;BME280;68207;50.078;19.936;2023-04-03T03:01:48;99411.22;;;2.45;77.15
78857;BME280;68207;50.078;19.936;2023-04-03T03:04:13;99409.00;;;2.42;77.06
78857;BME280;68207;50.078;19.936;2023-04-03T03:06:39;99412.86;;;2.42;77.06
78857;BME280;68207;50.078;19.936;2023-04-03T03:09:05;99410.91;;;2.44;77.05
78857;BME280;68207;50.078;19.936;2023-04-03T03:11:31;99414.50;;;2.45;77.07
78857;BME280;68207;50.078;19.936;2023-04-03T03:13:56;99413.70;;;2.45;77.02
78857;BME280;68207;50.078;19.936;2023-04-03T03:16:22;99410.63;;;2.44;77.07
78857;BME280;68207;50.078;19.936;2023-04-03T03:18:47;99409.70;;;2.42;77.22
78857;BME280;68207;50.078;19.936;2023-04-03T03:21:13;99410.98;;;2.41;77.12
78857;BME280;68207;50.078;19.936;2023-04-03T03:23:38;99411.16;;;2.39;77.25
78857;BME280;68207;50.078;19.936;2023-04-03T03:26:07;99410.64;;;2.39;77.05
78857;BME280;68207;50.078;19.936;2023-04-03T03:28:34;99412.14;;;2.40;77.05
78857;BME280;68207;50.078;19.936;2023-04-03T03:31:21;99417.65;;;2.40;77.03
78857;BME280;68207;50.078;19.936;2023-04-03T03:33:45;99417.30;;;2.40;77.25
78857;BME280;68207;50.078;19.936;2023-04-03T03:36:11;99416.77;;;2.36;77.33
78857;BME280;68207;50.078;19.936;2023-04-03T03:38:37;99418.70;;;2.33;77.21
78857;BME280;68207;50.078;19.936;2023-04-03T03:41:02;99421.70;;;2.28;77.26
78857;BME280;68207;50.078;19.936;2023-04-03T03:43:28;99423.86;;;2.22;76.97
78857;BME280;68207;50.078;19.936;2023-04-03T03:45:54;99429.02;;;2.17;77.14
78857;BME280;68207;50.078;19.936;2023-04-03T03:48:20;99432.77;;;2.17;77.03
78857;BME280;68207;50.078;19.936;2023-04-03T03:50:46;99432.63;;;2.18;77.01
78857;BME280;68207;50.078;19.936;2023-04-03T03:53:11;99433.77;;;2.20;76.83
78857;BME280;68207;50.078;19.936;2023-04-03T03:55:37;99436.46;;;2.19;76.82
78857;BME280;68207;50.078;19.936;2023-04-03T03:58:02;99438.47;;;2.17;76.94
78857;BME280;68207;50.078;19.936;2023-04-03T04:00:28;99438.52;;;2.16;77.07
78857;BME280;68207;50.078;19.936;2023-04-03T04:02:54;99442.31;;;2.15;77.17
78857;BME280;68207;50.078;19.936;2023-04-03T04:05:19;99444.49;;;2.13;77.14
78857;BME280;68207;50.078;19.936;2023-04-03T04:07:45;99446.83;;;2.15;77.10
78857;BME280;68207;50.078;19.936;2023-04-03T04:10:16;99452.39;;;2.15;77.13
78857;BME280;68207;50.078;19.936;2023-04-03T04:12:41;99453.10;;;2.15;77.00
78857;BME280;68207;50.078;19.936;2023-04-03T04:15:07;99454.84;;;2.15;77.02
78857;BME280;68207;50.078;19.936;2023-04-03T04:17:33;99452.02;;;2.16;77.03
78857;BME280;68207;50.078;19.936;2023-04-03T04:20:00;99452.86;;;2.16;77.10
78857;BME280;68207;50.078;19.936;2023-04-03T04:22:25;99454.78;;;2.13;77.08
78857;BME280;68207;50.078;19.936;2023-04-03T04:24:50;99456.40;;;2.12;77.02
78857;BME280;68207;50.078;19.936;2023-04-03T04:27:16;99458.13;;;2.10;76.99
78857;BME280;68207;50.078;19.936;2023-04-03T04:29:41;99457.16;;;2.09;76.91
78857;BME280;68207;50.078;19.936;2023-04-03T04:32:07;99461.66;;;2.10;76.74
78857;BME280;68207;50.078;19.936;2023-04-03T04:34:33;99459.92;;;2.10;76.69
78857;BME280;68207;50.078;19.936;2023-04-03T04:36:59;99467.44;;;2.09;76.74
78857;BME280;68207;50.078;19.936;2023-04-03T04:39:24;99469.63;;;2.08;76.78
78857;BME280;68207;50.078;19.936;2023-04-03T04:41:50;99471.64;;;2.07;76.73
78857;BME280;68207;50.078;19.936;2023-04-03T04:44:16;99471.94;;;2.05;76.37
78857;BME280;68207;50.078;19.936;2023-04-03T04:46:41;99479.83;;;2.02;76.47
78857;BME280;68207;50.078;19.936;2023-04-03T04:49:07;99475.48;;;1.99;76.50
78857;BME280;68207;50.078;19.936;2023-04-03T04:51:32;99477.46;;;2.01;76.48
78857;BME280;68207;50.078;19.936;2023-04-03T04:53:58;99479.42;;;2.05;76.47
78857;BME280;68207;50.078;19.936;2023-04-03T04:56:23;99478.55;;;2.07;76.41
78857;BME280;68207;50.078;19.936;2023-04-03T04:58:48;99485.17;;;2.10;76.49
78857;BME280;68207;50.078;19.936;2023-04-03T05:01:16;99486.27;;;2.12;76.51
78857;BME280;68207;50.078;19.936;2023-04-03T05:03:41;99488.55;;;2.14;76.59
78857;BME280;68207;50.078;19.936;2023-04-03T05:06:07;99487.30;;;2.14;76.52
78857;BME280;68207;50.078;19.936;2023-04-03T05:08:32;99487.80;;;2.15;76.63
78857;BME280;68207;50.078;19.936;2023-04-03T05:10:58;99489.31;;;2.16;76.47
78857;BME280;68207;50.078;19.936;2023-04-03T05:13:23;99489.94;;;2.19;76.59
78857;BME280;68207;50.078;19.936;2023-04-03T05:15:49;99493.02;;;2.25;76.50
78857;BME280;68207;50.078;19.936;2023-04-03T05:18:14;99501.52;;;2.28;76.49
78857;BME280;68207;50.078;19.936;2023-04-03T05:20:39;99502.31;;;2.32;76.42
78857;BME280;68207;50.078;19.936;2023-04-03T05:23:05;99507.36;;;2.34;76.35
78857;BME280;68207;50.078;19.936;2023-04-03T05:25:30;99506.85;;;2.37;76.69
78857;BME280;68207;50.078;19.936;2023-04-03T05:27:56;99507.21;;;2.39;76.62
78857;BME280;68207;50.078;19.936;2023-04-03T05:30:21;99507.96;;;2.41;76.89
78857;BME280;68207;50.078;19.936;2023-04-03T05:32:47;99511.70;;;2.42;76.39
78857;BME280;68207;50.078;19.936;2023-04-03T05:35:13;99514.11;;;2.47;76.44
78857;BME280;68207;50.078;19.936;2023-04-03T05:37:38;99518.13;;;2.50;76.17
78857;BME280;68207;50.078;19.936;2023-04-03T05:40:05;99519.17;;;2.50;75.77
78857;BME280;68207;50.078;19.936;2023-04-03T05:42:31;99517.37;;;2.48;75.25
78857;BME280;68207;50.078;19.936;2023-04-03T05:44:57;99523.02;;;2.47;75.35
78857;BME280;68207;50.078;19.936;2023-04-03T05:47:22;99525.50;;;2.47;75.13
78857;BME280;68207;50.078;19.936;2023-04-03T05:49:48;99525.78;;;2.45;75.24
78857;BME280;68207;50.078;19.936;2023-04-03T05:52:28;99530.80;;;2.43;74.91
78857;BME280;68207;50.078;19.936;2023-04-03T05:54:54;99528.05;;;2.40;74.94
78857;BME280;68207;50.078;19.936;2023-04-03T05:57:20;99532.30;;;2.42;75.03
78857;BME280;68207;50.078;19.936;2023-04-03T05:59:46;99535.63;;;2.44;75.23
78857;BME280;68207;50.078;19.936;2023-04-03T06:02:15;99537.59;;;2.46;75.03
78857;BME280;68207;50.078;19.936;2023-04-03T06:04:41;99541.61;;;2.45;74.97
78857;BME280;68207;50.078;19.936;2023-04-03T06:07:11;99543.32;;;2.41;75.00
78857;BME280;68207;50.078;19.936;2023-04-03T06:09:37;99544.38;;;2.36;74.89
78857;BME280;68207;50.078;19.936;2023-04-03T06:12:02;99544.84;;;2.32;74.70
78857;BME280;68207;50.078;19.936;2023-04-03T06:14:28;99546.48;;;2.26;74.51
78857;BME280;68207;50.078;19.936;2023-04-03T06:16:54;99548.09;;;2.18;74.34
78857;BME280;68207;50.078;19.936;2023-04-03T06:19:20;99550.02;;;2.12;74.54
78857;BME280;68207;50.078;19.936;2023-04-03T06:21:46;99546.82;;;2.11;74.39
78857;BME280;68207;50.078;19.936;2023-04-03T06:24:15;99546.80;;;2.13;74.10
78857;BME280;68207;50.078;19.936;2023-04-03T06:26:41;99553.20;;;2.16;74.25
78857;BME280;68207;50.078;19.936;2023-04-03T06:29:06;99556.70;;;2.17;73.78
78857;BME280;68207;50.078;19.936;2023-04-03T06:31:32;99556.15;;;2.17;73.80
78857;BME280;68207;50.078;19.936;2023-04-03T06:33:57;99563.48;;;2.19;74.00
78857;BME280;68207;50.078;19.936;2023-04-03T06:36:23;99565.02;;;2.23;74.01
78857;BME280;68207;50.078;19.936;2023-04-03T06:38:48;99565.08;;;2.25;73.66
78857;BME280;68207;50.078;19.936;2023-04-03T06:41:14;99566.83;;;2.24;73.43
78857;BME280;68207;50.078;19.936;2023-04-03T06:43:40;99570.52;;;2.26;72.82
78857;BME280;68207;50.078;19.936;2023-04-03T06:46:05;99574.29;;;2.27;72.90
78857;BME280;68207;50.078;19.936;2023-04-03T06:48:31;99578.60;;;2.28;72.51
78857;BME280;68207;50.078;19.936;2023-04-03T06:50:57;99579.44;;;2.29;72.12
78857;BME280;68207;50.078;19.936;2023-04-03T06:53:23;99580.72;;;2.27;71.93
78857;BME280;68207;50.078;19.936;2023-04-03T06:55:49;99583.91;;;2.32;71.96
78857;BME280;68207;50.078;19.936;2023-04-03T06:58:15;99583.16;;;2.38;71.76
78857;BME280;68207;50.078;19.936;2023-04-03T07:00:45;99587.83;;;2.46;71.57
78857;BME280;68207;50.078;19.936;2023-04-03T07:03:12;99581.10;;;2.52;71.28
78857;BME280;68207;50.078;19.936;2023-04-03T07:05:37;99586.08;;;2.56;70.91
78857;BME280;68207;50.078;19.936;2023-04-03T07:08:03;99578.30;;;2.57;70.44
78857;BME280;68207;50.078;19.936;2023-04-03T07:10:28;99586.96;;;2.58;70.24
78857;BME280;68207;50.078;19.936;2023-04-03T07:12:54;99589.55;;;2.61;70.13
78857;BME280;68207;50.078;19.936;2023-04-03T07:15:19;99588.31;;;2.61;69.90
78857;BME280;68207;50.078;19.936;2023-04-03T07:17:47;99595.16;;;2.63;69.76
78857;BME280;68207;50.078;19.936;2023-04-03T07:20:12;99596.29;;;2.62;69.40
78857;BME280;68207;50.078;19.936;2023-04-03T07:22:38;99601.26;;;2.58;69.10
78857;BME280;68207;50.078;19.936;2023-04-03T07:25:04;99604.60;;;2.58;69.22
78857;BME280;68207;50.078;19.936;2023-04-03T07:27:31;99602.41;;;2.59;69.33
78857;BME280;68207;50.078;19.936;2023-04-03T07:29:57;99602.30;;;2.61;69.33
78857;BME280;68207;50.078;19.936;2023-04-03T07:32:22;99605.36;;;2.62;68.74
78857;BME280;68207;50.078;19.936;2023-04-03T07:34:48;99608.80;;;2.65;68.76
78857;BME280;68207;50.078;19.936;2023-04-03T07:37:13;99610.84;;;2.68;67.80
78857;BME280;68207;50.078;19.936;2023-04-03T07:39:39;99615.13;;;2.70;67.63
78857;BME280;68207;50.078;19.936;2023-04-03T07:42:08;99621.00;;;2.75;67.18
78857;BME280;68207;50.078;19.936;2023-04-03T07:44:34;99624.88;;;2.82;66.96
78857;BME280;68207;50.078;19.936;2023-04-03T07:47:00;99622.30;;;2.94;67.25
78857;BME280;68207;50.078;19.936;2023-04-03T07:49:25;99629.20;;;3.10;67.12
78857;BME280;68207;50.078;19.936;2023-04-03T07:51:51;99631.54;;;3.26;66.72
78857;BME280;68207;50.078;19.936;2023-04-03T07:54:20;99630.80;;;3.41;66.64
78857;BME280;68207;50.078;19.936;2023-04-03T07:56:46;99629.20;;;3.60;66.49
78857;BME280;68207;50.078;19.936;2023-04-03T07:59:11;99627.19;;;3.83;66.02
78857;BME280;68207;50.078;19.936;2023-04-03T08:01:37;99627.17;;;4.09;64.90
78857;BME280;68207;50.078;19.936;2023-04-03T08:04:03;99630.16;;;4.31;64.84
78857;BME280;68207;50.078;19.936;2023-04-03T08:06:28;99631.02;;;4.55;65.04
78857;BME280;68207;50.078;19.936;2023-04-03T08:08:58;99625.47;;;4.76;63.51
78857;BME280;68207;50.078;19.936;2023-04-03T08:11:24;99632.35;;;4.87;62.84
78857;BME280;68207;50.078;19.936;2023-04-03T08:13:51;99632.58;;;5.06;63.17
78857;BME280;68207;50.078;19.936;2023-04-03T08:16:21;99633.60;;;5.24;62.37
78857;BME280;68207;50.078;19.936;2023-04-03T08:18:48;99640.14;;;5.34;61.87
78857;BME280;68207;50.078;19.936;2023-04-03T08:21:14;99640.58;;;5.44;61.70
78857;BME280;68207;50.078;19.936;2023-04-03T08:23:40;99639.59;;;5.50;61.35
78857;BME280;68207;50.078;19.936;2023-04-03T08:26:16;99634.86;;;5.56;60.82
78857;BME280;68207;50.078;19.936;2023-04-03T08:29:02;99635.29;;;5.61;60.54
78857;BME280;68207;50.078;19.936;2023-04-03T08:31:28;99640.44;;;5.67;60.28
78857;BME280;68207;50.078;19.936;2023-04-03T08:33:57;99641.07;;;5.72;59.46
78857;BME280;68207;50.078;19.936;2023-04-03T08:36:27;99646.48;;;5.82;60.12
78857;BME280;68207;50.078;19.936;2023-04-03T08:38:54;99651.64;;;5.85;59.26
78857;BME280;68207;50.078;19.936;2023-04-03T08:41:24;99651.20;;;5.80;58.64
78857;BME280;68207;50.078;19.936;2023-04-03T08:46:32;99655.45;;;5.72;59.07
78857;BME280;68207;50.078;19.936;2023-04-03T08:49:01;99659.75;;;5.69;58.36
78857;BME280;68207;50.078;19.936;2023-04-03T08:51:27;99660.52;;;5.68;58.95
78857;BME280;68207;50.078;19.936;2023-04-03T08:54:06;99658.05;;;5.70;58.46
78857;BME280;68207;50.078;19.936;2023-04-03T08:56:38;99656.64;;;5.68;58.60
78857;BME280;68207;50.078;19.936;2023-04-03T08:59:09;99661.52;;;5.64;58.07
78857;BME280;68207;50.078;19.936;2023-04-03T09:01:40;99659.30;;;5.62;58.43
78857;BME280;68207;50.078;19.936;2023-04-03T09:04:12;99667.30;;;5.60;58.64
78857;BME280;68207;50.078;19.936;2023-04-03T09:06:39;99666.09;;;5.62;58.94
78857;BME280;68207;50.078;19.936;2023-04-03T09:09:21;99671.55;;;5.57;58.33
78857;BME280;68207;50.078;19.936;2023-04-03T09:12:06;99672.02;;;5.48;58.09
78857;BME280;68207;50.078;19.936;2023-04-03T09:20:44;99686.44;;;5.05;57.54
78857;BME280;68207;50.078;19.936;2023-04-03T09:23:24;99682.88;;;4.93;57.85
78857;BME280;68207;50.078;19.936;2023-04-03T09:25:58;99685.44;;;4.82;57.78
78857;BME280;68207;50.078;19.936;2023-04-03T09:28:27;99688.84;;;4.74;58.15
78857;BME280;68207;50.078;19.936;2023-04-03T09:30:52;99692.42;;;4.71;58.92
78857;BME280;68207;50.078;19.936;2023-04-03T09:33:19;99697.85;;;4.66;58.96
78857;BME280;68207;50.078;19.936;2023-04-03T09:35:47;99702.95;;;4.61;59.31
78857;BME280;68207;50.078;19.936;2023-04-03T09:40:43;99710.63;;;4.55;60.06
78857;BME280;68207;50.078;19.936;2023-04-03T09:45:42;99713.52;;;4.49;60.33
78857;BME280;68207;50.078;19.936;2023-04-03T09:55:52;99717.71;;;4.33;59.60
78857;BME280;68207;50.078;19.936;2023-04-03T09:58:30;99717.77;;;4.29;59.50
78857;BME280;68207;50.078;19.936;2023-04-03T10:01:00;99720.44;;;4.22;59.28
78857;BME280;68207;50.078;19.936;2023-04-03T10:03:28;99720.70;;;4.09;59.63
78857;BME280;68207;50.078;19.936;2023-04-03T10:05:54;99727.39;;;4.04;59.73
78857;BME280;68207;50.078;19.936;2023-04-03T10:08:26;99728.17;;;4.03;59.83
78857;BME280;68207;50.078;19.936;2023-04-03T10:13:33;99728.44;;;4.04;59.73
78857;BME280;68207;50.078;19.936;2023-04-03T10:16:12;99727.85;;;4.05;59.65
78857;BME280;68207;50.078;19.936;2023-04-03T10:21:25;99730.35;;;4.09;59.75
78857;BME280;68207;50.078;19.936;2023-04-03T10:24:02;99731.06;;;4.11;60.03
78857;BME280;68207;50.078;19.936;2023-04-03T10:26:55;99729.70;;;4.15;59.90
78857;BME280;68207;50.078;19.936;2023-04-03T10:38:06;99736.04;;;4.17;60.10
78857;BME280;68207;50.078;19.936;2023-04-03T10:40:56;99732.99;;;4.20;60.01
78857;BME280;68207;50.078;19.936;2023-04-03T10:46:03;99735.65;;;4.22;59.40
78857;BME280;68207;50.078;19.936;2023-04-03T10:51:33;99735.70;;;4.17;58.77
78857;BME280;68207;50.078;19.936;2023-04-03T10:54:13;99733.83;;;4.16;59.31
78857;BME280;68207;50.078;19.936;2023-04-03T10:56:42;99735.23;;;4.19;59.55
78857;BME280;68207;50.078;19.936;2023-04-03T10:59:25;99731.11;;;4.20;59.11
78857;BME280;68207;50.078;19.936;2023-04-03T11:02:00;99737.38;;;4.20;58.53
78857;BME280;68207;50.078;19.936;2023-04-03T11:04:33;99735.95;;;4.18;58.50
78857;BME280;68207;50.078;19.936;2023-04-03T11:07:02;99737.93;;;4.17;58.89
78857;BME280;68207;50.078;19.936;2023-04-03T11:09:40;99740.36;;;4.18;58.90
78857;BME280;68207;50.078;19.936;2023-04-03T11:12:14;99742.67;;;4.17;59.00
78857;BME280;68207;50.078;19.936;2023-04-03T11:14:42;99738.05;;;4.18;58.83
78857;BME280;68207;50.078;19.936;2023-04-03T11:17:26;99740.97;;;4.16;58.77
78857;BME280;68207;50.078;19.936;2023-04-03T11:20:16;99743.66;;;4.16;58.92
78857;BME280;68207;50.078;19.936;2023-04-03T11:22:51;99742.70;;;4.17;58.50
78857;BME280;68207;50.078;19.936;2023-04-03T11:25:22;99743.61;;;4.16;58.22
78857;BME280;68207;50.078;19.936;2023-04-03T11:27:59;99742.56;;;4.16;58.43
78857;BME280;68207;50.078;19.936;2023-04-03T11:31:05;99739.56;;;4.21;58.48
78857;BME280;68207;50.078;19.936;2023-04-03T11:36:26;99740.65;;;4.37;58.84
78857;BME280;68207;50.078;19.936;2023-04-03T11:38:59;99741.88;;;4.47;58.32
78857;BME280;68207;50.078;19.936;2023-04-03T11:41:29;99735.64;;;4.66;58.33
78857;BME280;68207;50.078;19.936;2023-04-03T11:46:59;99732.27;;;5.28;57.76
78857;BME280;68207;50.078;19.936;2023-04-03T11:50:03;99729.67;;;5.56;57.15
78857;BME280;68207;50.078;19.936;2023-04-03T12:00:53;99721.67;;;6.40;55.15
78857;BME280;68207;50.078;19.936;2023-04-03T12:27:17;99718.35;;;8.34;48.59
78857;BME280;68207;50.078;19.936;2023-04-03T12:30:20;99717.58;;;8.49;48.11
78857;BME280;68207;50.078;19.936;2023-04-03T12:33:02;99716.11;;;8.62;47.56
78857;BME280;68207;50.078;19.936;2023-04-03T12:35:34;99713.44;;;8.63;47.09
78857;BME280;68207;50.078;19.936;2023-04-03T12:41:16;99713.45;;;8.68;46.18
78857;BME280;68207;50.078;19.936;2023-04-03T12:43:49;99717.91;;;8.75;46.01
78857;BME280;68207;50.078;19.936;2023-04-03T12:46:24;99713.90;;;8.90;45.19
78857;BME280;68207;50.078;19.936;2023-04-03T12:48:57;99710.29;;;8.99;44.68
78857;BME280;68207;50.078;19.936;2023-04-03T12:51:37;99712.15;;;9.03;44.94
78857;BME280;68207;50.078;19.936;2023-04-03T12:54:18;99708.99;;;9.14;44.90
78857;BME280;68207;50.078;19.936;2023-04-03T12:56:44;99716.36;;;9.23;44.77
78857;BME280;68207;50.078;19.936;2023-04-03T12:59:25;99711.33;;;9.29;44.36
78857;BME280;68207;50.078;19.936;2023-04-03T13:02:01;99713.04;;;9.27;43.50
78857;BME280;68207;50.078;19.936;2023-04-03T13:04:27;99714.75;;;9.22;43.59
78857;BME280;68207;50.078;19.936;2023-04-03T13:06:53;99714.84;;;9.19;43.90
78857;BME280;68207;50.078;19.936;2023-04-03T13:09:25;99715.36;;;9.15;44.15
78857;BME280;68207;50.078;19.936;2023-04-03T13:12:00;99717.52;;;9.11;44.20
78857;BME280;68207;50.078;19.936;2023-04-03T13:14:27;99716.56;;;9.07;43.29
78857;BME280;68207;50.078;19.936;2023-04-03T13:17:06;99716.01;;;9.03;42.84
78857;BME280;68207;50.078;19.936;2023-04-03T13:19:35;99706.36;;;8.97;43.06
78857;BME280;68207;50.078;19.936;2023-04-03T13:22:04;99708.15;;;8.99;43.23
78857;BME280;68207;50.078;19.936;2023-04-03T13:24:33;99707.45;;;9.03;43.25
78857;BME280;68207;50.078;19.936;2023-04-03T13:27:00;99705.40;;;8.96;42.77
78857;BME280;68207;50.078;19.936;2023-04-03T13:29:29;99704.17;;;8.87;42.91
78857;BME280;68207;50.078;19.936;2023-04-03T13:31:56;99700.12;;;8.83;43.46
78857;BME280;68207;50.078;19.936;2023-04-03T13:34:24;99700.48;;;8.85;43.78
78857;BME280;68207;50.078;19.936;2023-04-03T13:41:53;99695.64;;;8.89;42.56
78857;BME280;68207;50.078;19.936;2023-04-03T13:46:51;99699.78;;;9.03;43.66
78857;BME280;68207;50.078;19.936;2023-04-03T13:49:29;99703.71;;;9.12;43.24
78857;BME280;68207;50.078;19.936;2023-04-03T13:51:55;99706.24;;;9.19;43.32
78857;BME280;68207;50.078;19.936;2023-04-03T13:54:24;99704.41;;;9.23;42.92
78857;BME280;68207;50.078;19.936;2023-04-03T13:56:55;99702.95;;;9.18;42.16
78857;BME280;68207;50.078;19.936;2023-04-03T13:59:30;99700.90;;;9.08;42.17
78857;BME280;68207;50.078;19.936;2023-04-03T14:04:29;99700.86;;;9.00;42.46
78857;BME280;68207;50.078;19.936;2023-04-03T14:06:55;99698.04;;;8.88;42.37
78857;BME280;68207;50.078;19.936;2023-04-03T14:09:22;99696.52;;;8.76;42.11
78857;BME280;68207;50.078;19.936;2023-04-03T14:11:54;99696.78;;;8.66;42.44
78857;BME280;68207;50.078;19.936;2023-04-03T14:14:21;99698.10;;;8.61;42.86
78857;BME280;68207;50.078;19.936;2023-04-03T14:16:52;99699.36;;;8.56;42.85
78857;BME280;68207;50.078;19.936;2023-04-03T14:19:39;99698.41;;;8.48;41.96
78857;BME280;68207;50.078;19.936;2023-04-03T14:22:23;99701.31;;;8.38;42.53
78857;BME280;68207;50.078;19.936;2023-04-03T14:24:50;99699.48;;;8.35;42.83
78857;BME280;68207;50.078;19.936;2023-04-03T14:27:23;99698.40;;;8.35;42.72
78857;BME280;68207;50.078;19.936;2023-04-03T14:29:50;99693.44;;;8.31;42.61
78857;BME280;68207;50.078;19.936;2023-04-03T14:32:17;99695.14;;;8.26;42.91
78857;BME280;68207;50.078;19.936;2023-04-03T14:34:43;99697.59;;;8.17;43.03
78857;BME280;68207;50.078;19.936;2023-04-03T14:37:13;99696.46;;;8.10;43.12
78857;BME280;68207;50.078;19.936;2023-04-03T14:39:40;99697.27;;;8.01;42.82
78857;BME280;68207;50.078;19.936;2023-04-03T14:42:06;99694.02;;;7.94;42.96
78857;BME280;68207;50.078;19.936;2023-04-03T14:44:31;99696.98;;;7.90;43.38